createdAt,value
2018-06-19T00:01:53.309Z,99.90
2018-06-19T00:04:23.069Z,99.90
2018-06-19T00:06:52.161Z,99.90
2018-06-19T00:09:21.412Z,99.90
2018-06-19T00:11:50.698Z,99.90
2018-06-19T00:14:20.032Z,99.90
2018-06-19T00:17:11.628Z,99.90
2018-06-19T00:22:43.744Z,99.90
2018-06-19T00:39:37.688Z,99.90
2018-06-19T00:42:06.949Z,99.90
2018-06-19T00:44:35.856Z,99.90
2018-06-19T00:47:08.589Z,99.90
2018-06-19T00:58:19.555Z,99.90
2018-06-19T01:00:49.415Z,99.90
2018-06-19T01:03:28.064Z,99.90
2018-06-19T01:05:56.963Z,99.90
2018-06-19T01:08:26.364Z,99.90
2018-06-19T01:10:55.664Z,99.90
2018-06-19T01:16:29.008Z,99.90
2018-06-19T01:31:24.273Z,99.90
2018-06-19T01:33:59.654Z,99.90
2018-06-19T01:36:28.547Z,99.90
2018-06-19T01:38:57.451Z,99.90
2018-06-19T01:44:20.255Z,99.90
2018-06-19T01:49:52.656Z,99.90
2018-06-19T01:55:24.574Z,99.90
2018-06-19T01:58:16.735Z,99.90
2018-06-19T02:12:14.465Z,99.90
2018-06-19T02:14:43.588Z,99.90
2018-06-19T02:20:15.890Z,99.90
2018-06-19T02:22:44.752Z,99.90
2018-06-19T02:33:25.396Z,99.90
2018-06-19T02:35:55.330Z,99.90
2018-06-19T02:38:24.181Z,99.90
2018-06-19T02:40:53.487Z,99.90
2018-06-19T02:43:22.348Z,99.90
2018-06-19T02:49:12.816Z,99.90
2018-06-19T03:04:08.825Z,99.90
2018-06-19T03:06:49.789Z,99.90
2018-06-19T03:09:19.552Z,99.90
2018-06-19T03:11:49.056Z,99.90
2018-06-19T03:14:17.961Z,99.90
2018-06-19T03:16:46.960Z,99.90
2018-06-19T03:19:15.868Z,99.90
2018-06-19T03:21:44.742Z,99.90
2018-06-19T03:24:13.603Z,99.90
2018-06-19T03:26:42.731Z,99.90
2018-06-19T03:29:11.583Z,99.90
2018-06-19T03:31:40.449Z,99.90
2018-06-19T03:34:09.292Z,99.90
2018-06-19T03:36:38.140Z,99.90
2018-06-19T03:39:08.811Z,99.90
2018-06-19T03:41:37.667Z,99.90
2018-06-19T03:44:06.624Z,99.90
2018-06-19T03:46:35.480Z,99.90
2018-06-19T03:49:04.805Z,99.90
2018-06-19T03:51:33.672Z,99.90
2018-06-19T03:54:02.696Z,99.90
2018-06-19T03:56:31.548Z,99.90
2018-06-19T03:59:00.413Z,99.90
2018-06-19T04:01:29.318Z,99.90
2018-06-19T04:03:58.175Z,99.90
2018-06-19T04:06:33.397Z,99.90
2018-06-19T04:09:04.731Z,99.90
2018-06-19T04:11:33.644Z,99.90
2018-06-19T04:14:03.189Z,99.90
2018-06-19T04:16:33.336Z,99.90
2018-06-19T04:19:02.208Z,99.90
2018-06-19T04:33:44.896Z,99.90
2018-06-19T04:50:39.767Z,99.90
2018-06-19T04:53:09.333Z,99.90
2018-06-19T04:58:42.176Z,99.90
2018-06-19T05:01:11.336Z,99.90
2018-06-19T05:03:40.256Z,99.90
2018-06-19T05:06:15.457Z,99.90
2018-06-19T05:08:44.385Z,99.90
2018-06-19T05:11:13.306Z,99.90
2018-06-19T05:13:42.396Z,99.90
2018-06-19T05:19:15.050Z,99.90
2018-06-19T05:21:44.983Z,99.90
2018-06-19T05:24:13.906Z,99.90
2018-06-19T05:26:42.796Z,99.90
2018-06-19T05:29:11.640Z,99.90
2018-06-19T05:31:40.517Z,99.90
2018-06-19T05:34:09.364Z,99.90
2018-06-19T05:36:38.291Z,99.90
2018-06-19T05:39:09.007Z,99.90
2018-06-19T05:41:38.157Z,99.90
2018-06-19T05:44:07.864Z,99.90
2018-06-19T05:46:40.317Z,99.90
2018-06-19T05:49:10.540Z,99.90
2018-06-19T05:51:39.579Z,99.90
2018-06-19T05:54:08.491Z,99.90
2018-06-19T05:56:37.438Z,99.90
2018-06-19T05:59:06.351Z,99.90
2018-06-19T06:01:35.225Z,99.90
2018-06-19T06:04:04.097Z,99.90
2018-06-19T06:06:32.955Z,99.90
2018-06-19T06:09:01.817Z,99.90
2018-06-19T06:11:30.714Z,99.90
2018-06-19T06:13:59.590Z,99.90
2018-06-19T06:16:28.528Z,99.90
2018-06-19T06:18:57.337Z,99.90
2018-06-19T06:21:26.187Z,99.90
2018-06-19T06:29:29.899Z,99.90
2018-06-19T06:31:58.980Z,99.90
2018-06-19T06:34:27.884Z,99.90
2018-06-19T06:36:56.768Z,99.90
2018-06-19T06:39:25.857Z,99.90
2018-06-19T06:41:54.755Z,99.90
2018-06-19T06:44:23.751Z,99.90
2018-06-19T06:46:52.652Z,99.90
2018-06-19T06:49:21.532Z,99.90
2018-06-19T06:51:50.453Z,99.90
2018-06-19T06:54:19.327Z,99.90
2018-06-19T06:59:16.906Z,99.90
2018-06-19T07:01:45.787Z,99.90
2018-06-19T07:06:45.042Z,99.90
2018-06-19T07:09:13.919Z,99.90
2018-06-19T07:11:46.670Z,99.90
2018-06-19T07:14:15.570Z,99.90
2018-06-19T07:16:44.554Z,99.90
2018-06-19T07:19:13.591Z,99.90
2018-06-19T07:21:42.439Z,99.90
2018-06-19T07:24:11.358Z,99.90
2018-06-19T07:26:40.232Z,99.90
2018-06-19T07:29:09.124Z,99.90
2018-06-19T07:31:38.063Z,99.90
2018-06-19T07:34:07.032Z,99.90
2018-06-19T07:36:35.963Z,99.90
2018-06-19T07:39:07.159Z,99.90
2018-06-19T07:41:48.150Z,99.90
2018-06-19T07:44:17.299Z,99.90
2018-06-19T07:46:46.172Z,99.90
2018-06-19T07:49:15.086Z,99.90
2018-06-19T07:51:44.015Z,99.90
2018-06-19T07:54:12.947Z,99.90
2018-06-19T07:56:41.854Z,99.90
2018-06-19T07:59:10.773Z,99.90
2018-06-19T08:01:39.692Z,99.90
2018-06-19T08:04:08.594Z,99.90
2018-06-19T08:06:37.482Z,99.90
2018-06-19T08:09:08.157Z,99.90
2018-06-19T08:11:37.226Z,99.90
2018-06-19T08:14:06.148Z,99.90
2018-06-19T08:16:35.174Z,99.90
2018-06-19T08:19:04.126Z,99.90
2018-06-19T08:21:33.074Z,99.90
2018-06-19T08:24:02.004Z,99.90
2018-06-19T08:26:30.920Z,99.90
2018-06-19T08:28:59.836Z,99.90
2018-06-19T08:31:28.754Z,99.90
2018-06-19T08:33:57.653Z,99.90
2018-06-19T08:36:27.107Z,99.90
2018-06-19T08:38:56.032Z,99.90
2018-06-19T08:41:24.942Z,99.90
2018-06-19T08:43:53.856Z,99.90
2018-06-19T08:46:22.757Z,99.90
2018-06-19T08:48:51.670Z,99.90
2018-06-19T08:51:20.552Z,99.90
2018-06-19T08:53:49.420Z,99.90
2018-06-19T08:56:24.287Z,99.90
2018-06-19T08:58:53.207Z,99.90
2018-06-19T09:01:22.093Z,99.90
2018-06-19T09:03:50.974Z,99.90
2018-06-19T09:06:19.895Z,99.90
2018-06-19T09:08:48.988Z,99.90
2018-06-19T09:13:58.920Z,99.90
2018-06-19T09:16:27.783Z,99.90
2018-06-19T09:18:56.744Z,99.90
2018-06-19T09:21:25.617Z,99.90
2018-06-19T09:23:54.563Z,99.90
2018-06-19T09:26:23.496Z,99.90
2018-06-19T09:28:52.503Z,99.90
2018-06-19T09:31:21.451Z,99.90
2018-06-19T09:33:50.324Z,99.90
2018-06-19T09:36:19.190Z,99.90
2018-06-19T09:38:48.078Z,99.90
2018-06-19T09:41:16.960Z,99.90
2018-06-19T09:43:46.160Z,99.90
2018-06-19T09:46:15.110Z,99.90
2018-06-19T09:48:43.993Z,99.90
2018-06-19T09:51:12.918Z,99.90
2018-06-19T09:53:41.817Z,99.90
2018-06-19T09:56:10.677Z,99.90
2018-06-19T09:58:39.561Z,99.90
2018-06-19T10:01:08.454Z,99.90
2018-06-19T10:03:37.334Z,99.90
2018-06-19T10:06:06.277Z,99.90
2018-06-19T10:08:35.195Z,99.90
2018-06-19T10:11:04.127Z,99.90
2018-06-19T10:13:33.028Z,99.90
2018-06-19T10:16:01.909Z,99.90
2018-06-19T10:18:31.553Z,99.90
2018-06-19T10:21:00.455Z,99.90
2018-06-19T10:23:29.399Z,99.90
2018-06-19T10:28:39.184Z,99.60
2018-06-19T10:31:08.117Z,99.60
2018-06-19T10:36:05.866Z,99.50
2018-06-19T10:38:34.757Z,99.30
2018-06-19T10:41:10.081Z,98.80
2018-06-19T10:43:39.699Z,98.70
2018-06-19T10:46:09.131Z,98.10
2018-06-19T10:48:38.139Z,97.30
2018-06-19T10:51:07.019Z,96.50
2018-06-19T10:53:35.948Z,96.50
2018-06-19T10:56:08.784Z,97.70
2018-06-19T10:58:37.716Z,97.70
2018-06-19T11:01:06.655Z,97.90
2018-06-19T11:03:35.690Z,98.20
2018-06-19T11:06:04.604Z,97.70
2018-06-19T11:08:33.532Z,97.90
2018-06-19T11:11:02.450Z,97.40
2018-06-19T11:13:31.389Z,97.20
2018-06-19T11:16:00.850Z,97.50
2018-06-19T11:18:29.762Z,97.60
2018-06-19T11:20:58.689Z,97.50
2018-06-19T11:23:27.601Z,98.60
2018-06-19T11:26:00.086Z,97.90
2018-06-19T11:28:29.053Z,97.70
2018-06-19T11:30:57.976Z,98.30
2018-06-19T11:33:26.890Z,98.40
2018-06-19T11:35:55.858Z,97.80
2018-06-19T11:38:24.821Z,98.20
2018-06-19T11:40:57.115Z,97.80
2018-06-19T11:43:26.059Z,97.20
2018-06-19T11:45:55.151Z,97.90
2018-06-19T11:48:24.082Z,99.60
2018-06-19T11:50:53.100Z,99.90
2018-06-19T11:53:21.984Z,99.90
2018-06-19T12:01:26.101Z,96.70
2018-06-19T12:04:04.852Z,95.50
2018-06-19T12:06:33.744Z,95.30
2018-06-19T12:09:02.664Z,94.60
2018-06-19T12:11:31.567Z,94.10
2018-06-19T12:14:00.496Z,94.10
2018-06-19T12:25:06.528Z,91.50
2018-06-19T12:27:35.437Z,92.60
2018-06-19T12:30:04.814Z,92.40
2018-06-19T12:32:33.766Z,92.30
2018-06-19T12:35:02.691Z,91.70
2018-06-19T12:43:10.113Z,91.20
2018-06-19T12:45:38.964Z,91.60
2018-06-19T12:48:07.874Z,90.30
2018-06-19T12:50:48.161Z,91.60
2018-06-19T12:53:28.287Z,91.70
2018-06-19T12:56:08.424Z,91.40
2018-06-19T13:07:04.556Z,92.40
2018-06-19T13:09:33.496Z,92.00
2018-06-19T13:12:02.474Z,92.00
2018-06-19T13:14:39.177Z,91.90
2018-06-19T13:17:19.836Z,92.70
2018-06-19T13:20:04.572Z,90.80
2018-06-19T13:22:33.582Z,91.40
2018-06-19T13:25:02.552Z,90.80
2018-06-19T13:27:31.450Z,89.10
2018-06-19T13:30:11.590Z,90.30
2018-06-19T13:32:40.492Z,90.10
2018-06-19T13:35:09.364Z,90.70
2018-06-19T13:37:38.263Z,89.90
2018-06-19T13:46:02.023Z,88.00
2018-06-19T13:48:30.975Z,87.70
2018-06-19T13:50:59.928Z,89.10
2018-06-19T13:53:28.894Z,89.80
2018-06-19T13:58:34.029Z,87.10
2018-06-19T14:03:43.980Z,86.30
2018-06-19T14:06:12.845Z,87.10
2018-06-19T14:08:55.365Z,86.80
2018-06-19T14:11:35.421Z,87.60
2018-06-19T14:14:04.296Z,88.40
2018-06-19T14:16:39.619Z,87.70
2018-06-19T14:19:14.576Z,87.30
2018-06-19T14:21:43.434Z,87.70
2018-06-19T14:24:12.353Z,83.80
2018-06-19T14:26:41.214Z,84.70
2018-06-19T14:29:10.117Z,83.10
2018-06-19T14:31:39.084Z,79.30
2018-06-19T14:39:46.616Z,83.70
2018-06-19T14:42:15.528Z,82.30
2018-06-19T14:44:44.377Z,82.70
2018-06-19T14:47:13.310Z,80.00
2018-06-19T14:49:42.151Z,82.20
2018-06-19T14:52:14.207Z,80.10
2018-06-19T14:54:43.147Z,80.40
2018-06-19T14:57:12.036Z,82.10
2018-06-19T14:59:40.997Z,78.10
2018-06-19T15:02:09.910Z,78.30
2018-06-19T15:04:38.772Z,76.70
2018-06-19T15:07:30.433Z,77.50
2018-06-19T15:10:09.506Z,76.60
2018-06-19T15:12:39.324Z,76.80
2018-06-19T15:15:08.228Z,78.30
2018-06-19T15:17:37.177Z,76.50
2018-06-19T15:20:06.095Z,79.50
2018-06-19T15:22:35.024Z,79.50
2018-06-19T15:25:03.922Z,80.40
2018-06-19T15:27:32.824Z,80.30
2018-06-19T15:32:30.535Z,83.50
2018-06-19T15:47:13.404Z,85.70
2018-06-19T15:49:50.035Z,86.60
2018-06-19T15:52:18.997Z,83.80
2018-06-19T16:10:00.497Z,74.90
2018-06-19T16:12:29.395Z,74.70
2018-06-19T16:19:55.294Z,78.70
2018-06-19T16:28:45.619Z,83.80
2018-06-19T16:31:14.501Z,85.20
2018-06-19T16:42:33.018Z,89.40
2018-06-19T16:45:01.934Z,89.30
2018-06-19T16:50:34.456Z,90.20
2018-06-19T16:53:03.315Z,90.40
2018-06-19T16:55:32.240Z,90.40
2018-06-19T16:58:01.230Z,90.50
2018-06-19T17:03:13.494Z,91.00
2018-06-19T17:36:10.727Z,91.80
2018-06-19T17:38:40.254Z,92.20
2018-06-19T17:41:09.836Z,92.50
2018-06-19T17:43:38.756Z,92.20
2018-06-19T17:46:07.637Z,92.40
2018-06-19T17:48:36.504Z,92.80
2018-06-19T17:51:05.676Z,93.90
2018-06-19T17:53:34.545Z,94.40
2018-06-19T17:56:03.417Z,94.80
2018-06-19T17:58:32.286Z,94.20
2018-06-19T18:01:01.156Z,94.40
2018-06-19T18:03:30.054Z,94.90
2018-06-19T18:05:58.938Z,94.80
2018-06-19T18:08:27.844Z,95.30
2018-06-19T18:10:56.726Z,95.00
2018-06-19T18:13:25.622Z,95.20
2018-06-19T18:15:55.162Z,95.30
2018-06-19T18:18:24.161Z,95.70
2018-06-19T18:23:21.717Z,95.20
2018-06-19T18:28:54.011Z,96.00
2018-06-19T18:31:22.920Z,95.70
2018-06-19T18:33:52.648Z,94.90
2018-06-19T18:36:21.540Z,95.30
2018-06-19T18:38:50.436Z,95.50
2018-06-19T18:41:19.486Z,95.50
2018-06-19T18:43:48.361Z,96.20
2018-06-19T18:46:17.232Z,96.20
2018-06-19T18:48:46.216Z,96.50
2018-06-19T18:51:15.089Z,96.60
2018-06-19T18:53:43.970Z,96.70
2018-06-19T18:56:12.839Z,97.30
2018-06-19T18:58:41.716Z,97.60
2018-06-19T19:01:10.593Z,97.60
2018-06-19T19:03:39.471Z,97.90
2018-06-19T19:06:08.357Z,98.30
2018-06-19T19:08:37.232Z,98.40
2018-06-19T19:11:06.091Z,98.90
2018-06-19T19:13:34.955Z,99.10
2018-06-19T19:16:09.109Z,99.50
2018-06-19T19:18:43.291Z,99.90
2018-06-19T19:21:12.703Z,98.90
2018-06-19T19:23:41.609Z,98.90
2018-06-19T19:26:10.432Z,98.60
2018-06-19T19:28:44.620Z,99.20
2018-06-19T19:31:13.469Z,98.60
2018-06-19T19:33:42.328Z,99.20
2018-06-19T19:36:16.656Z,99.50
2018-06-19T19:38:50.855Z,99.00
2018-06-19T19:41:19.752Z,99.00
2018-06-19T19:43:48.624Z,99.20
2018-06-19T19:46:22.794Z,99.80
2018-06-19T19:48:56.683Z,99.90
2018-06-19T19:51:26.336Z,99.60
2018-06-19T19:53:55.219Z,99.50
2018-06-19T19:56:29.509Z,99.50
2018-06-19T19:58:58.368Z,99.50
2018-06-19T20:01:27.240Z,99.40
2018-06-19T20:03:56.113Z,99.60
2018-06-19T20:06:24.976Z,99.90
2018-06-19T20:08:53.858Z,99.90
2018-06-19T20:11:22.950Z,99.90
2018-06-19T20:13:51.813Z,99.90
2018-06-19T20:16:20.683Z,99.90
2018-06-19T20:18:49.551Z,99.90
2018-06-19T20:21:18.413Z,99.90
2018-06-19T20:23:47.360Z,99.90
2018-06-19T20:26:16.236Z,99.90
2018-06-19T20:28:45.089Z,99.90
2018-06-19T20:31:13.964Z,99.90
2018-06-19T20:33:42.824Z,99.90
2018-06-19T20:36:11.684Z,99.90
2018-06-19T20:38:40.576Z,99.90
2018-06-19T20:41:09.445Z,99.90
2018-06-19T20:43:38.300Z,99.90
2018-06-19T20:46:07.172Z,99.90
2018-06-19T20:48:36.051Z,99.90
2018-06-19T20:51:05.907Z,99.90
2018-06-19T20:53:34.963Z,99.90
2018-06-19T20:56:03.828Z,99.90
2018-06-19T20:58:32.694Z,99.90
2018-06-19T21:01:01.670Z,99.90
2018-06-19T21:03:31.178Z,99.90
2018-06-19T21:06:00.038Z,99.90
2018-06-19T21:08:34.236Z,99.90
2018-06-19T21:11:03.145Z,99.90
2018-06-19T21:13:32.021Z,99.90
2018-06-19T21:16:00.926Z,99.90
2018-06-19T21:18:29.804Z,99.90
2018-06-19T21:20:58.709Z,99.90
2018-06-19T21:23:27.820Z,99.90
2018-06-19T21:25:56.739Z,99.90
2018-06-19T21:28:25.776Z,99.90
2018-06-19T21:30:54.672Z,99.90
2018-06-19T21:33:23.572Z,99.90
2018-06-19T21:35:52.477Z,99.90
2018-06-19T21:38:21.377Z,99.90
2018-06-19T21:40:50.285Z,99.90
2018-06-19T21:43:19.175Z,99.90
2018-06-19T21:45:48.047Z,99.90
2018-06-19T21:48:16.966Z,99.90
2018-06-19T21:50:45.851Z,99.90
2018-06-19T21:53:14.733Z,99.90
2018-06-19T21:55:43.672Z,99.90
2018-06-19T21:58:12.556Z,99.90
2018-06-19T22:00:41.436Z,99.90
2018-06-19T22:03:10.320Z,99.90
2018-06-19T22:05:39.194Z,99.90
2018-06-19T22:08:08.120Z,99.90
2018-06-19T22:10:37.001Z,99.90
2018-06-19T22:13:06.573Z,99.90
2018-06-19T22:15:35.432Z,99.90
2018-06-19T22:18:04.319Z,99.90
2018-06-19T22:20:33.237Z,99.90
2018-06-19T22:23:02.114Z,99.90
2018-06-19T22:25:30.977Z,99.90
2018-06-19T22:27:59.853Z,99.90
2018-06-19T22:30:28.731Z,99.90
2018-06-19T22:32:57.632Z,99.90
2018-06-19T22:35:26.509Z,99.90
2018-06-19T22:37:55.375Z,99.90
2018-06-19T22:40:24.253Z,99.90
2018-06-19T22:42:53.115Z,99.90
2018-06-19T22:45:21.985Z,99.90
2018-06-19T22:47:50.844Z,99.90
2018-06-19T22:50:19.729Z,99.90
2018-06-19T22:52:48.620Z,99.90
2018-06-19T22:55:17.476Z,99.90
2018-06-19T22:57:46.343Z,99.90
2018-06-19T23:00:17.161Z,99.90
2018-06-19T23:02:46.044Z,99.90
2018-06-19T23:05:14.916Z,99.90
2018-06-19T23:07:43.782Z,99.90
2018-06-19T23:10:12.656Z,99.90
2018-06-19T23:12:41.540Z,99.90
2018-06-19T23:15:10.414Z,99.90
2018-06-19T23:17:39.292Z,99.90
2018-06-19T23:20:08.158Z,99.90
2018-06-19T23:22:37.015Z,99.90
2018-06-19T23:25:05.889Z,99.90
2018-06-19T23:27:34.764Z,99.90
2018-06-19T23:30:03.651Z,99.90
2018-06-19T23:32:32.520Z,99.90
2018-06-19T23:35:01.451Z,99.90
2018-06-19T23:37:30.320Z,99.90
2018-06-19T23:39:59.188Z,99.90
2018-06-19T23:42:28.052Z,99.90
2018-06-19T23:44:56.948Z,99.90
2018-06-19T23:47:25.817Z,99.90
2018-06-19T23:49:54.701Z,99.90
2018-06-19T23:52:23.564Z,99.90
2018-06-19T23:54:52.432Z,99.90
2018-06-19T23:57:21.386Z,99.90
2018-06-19T23:59:50.247Z,99.90
